sensor_id;sensor_type;location;lat;lon;timestamp;pressure;altitude;pressure_sealevel;temperature;humidity
28167;BME280;15455;53.376;-6.262;2023-12-20T00:01:15;101929.50;;;5.67;100.00
28167;BME280;15455;53.376;-6.262;2023-12-20T00:04:02;101916.34;;;5.61;100.00
28167;BME280;15455;53.376;-6.262;2023-12-20T00:06:48;101932.59;;;5.56;100.00
28167;BME280;15455;53.376;-6.262;2023-12-20T00:09:33;101913.50;;;5.54;100.00
28167;BME280;15455;53.376;-6.262;2023-12-20T00:12:19;101927.50;;;5.60;100.00
28167;BME280;15455;53.376;-6.262;2023-12-20T00:15:05;101926.63;;;5.59;100.00
28167;BME280;15455;53.376;-6.262;2023-12-20T00:17:51;101937.31;;;5.68;100.00
28167;BME280;15455;53.376;-6.262;2023-12-20T00:20:36;101936.63;;;5.72;100.00
28167;BME280;15455;53.376;-6.262;2023-12-20T00:23:22;101936.66;;;5.74;100.00
28167;BME280;15455;53.376;-6.262;2023-12-20T00:26:09;101935.84;;;5.75;100.00
28167;BME280;15455;53.376;-6.262;2023-12-20T00:28:54;101925.44;;;5.73;100.00
28167;BME280;15455;53.376;-6.262;2023-12-20T00:31:39;101936.00;;;5.80;100.00
28167;BME280;15455;53.376;-6.262;2023-12-20T00:34:25;101939.41;;;5.79;100.00
28167;BME280;15455;53.376;-6.262;2023-12-20T00:37:11;101952.44;;;5.80;100.00
28167;BME280;15455;53.376;-6.262;2023-12-20T00:39:56;101948.16;;;5.81;100.00
28167;BME280;15455;53.376;-6.262;2023-12-20T00:42:42;101955.88;;;5.79;100.00
28167;BME280;15455;53.376;-6.262;2023-12-20T00:45:27;101958.25;;;5.74;100.00
28167;BME280;15455;53.376;-6.262;2023-12-20T00:48:13;101969.63;;;5.78;100.00
28167;BME280;15455;53.376;-6.262;2023-12-20T00:50:58;101968.06;;;5.83;100.00
28167;BME280;15455;53.376;-6.262;2023-12-20T00:53:44;101963.91;;;5.87;100.00
28167;BME280;15455;53.376;-6.262;2023-12-20T00:56:29;101968.28;;;5.88;100.00
28167;BME280;15455;53.376;-6.262;2023-12-20T00:59:16;101951.72;;;5.84;100.00
28167;BME280;15455;53.376;-6.262;2023-12-20T01:02:03;101952.47;;;5.82;100.00
28167;BME280;15455;53.376;-6.262;2023-12-20T01:04:49;101955.38;;;5.89;100.00
28167;BME280;15455;53.376;-6.262;2023-12-20T01:07:34;101947.75;;;5.94;100.00
28167;BME280;15455;53.376;-6.262;2023-12-20T01:10:20;101946.94;;;5.95;100.00
28167;BME280;15455;53.376;-6.262;2023-12-20T01:13:07;101930.53;;;5.96;100.00
28167;BME280;15455;53.376;-6.262;2023-12-20T01:15:54;101938.97;;;5.90;100.00
28167;BME280;15455;53.376;-6.262;2023-12-20T01:18:39;101927.84;;;5.93;100.00
28167;BME280;15455;53.376;-6.262;2023-12-20T01:21:25;101932.16;;;5.93;100.00
28167;BME280;15455;53.376;-6.262;2023-12-20T01:24:10;101925.19;;;5.91;100.00
28167;BME280;15455;53.376;-6.262;2023-12-20T01:26:57;101930.50;;;5.95;100.00
28167;BME280;15455;53.376;-6.262;2023-12-20T01:29:43;101934.28;;;6.03;100.00
28167;BME280;15455;53.376;-6.262;2023-12-20T01:32:28;101933.63;;;6.08;100.00
28167;BME280;15455;53.376;-6.262;2023-12-20T01:35:14;101938.97;;;6.13;100.00
28167;BME280;15455;53.376;-6.262;2023-12-20T01:38:00;101939.22;;;6.21;100.00
28167;BME280;15455;53.376;-6.262;2023-12-20T01:40:46;101943.34;;;6.40;100.00
28167;BME280;15455;53.376;-6.262;2023-12-20T01:43:31;101940.31;;;6.53;100.00
28167;BME280;15455;53.376;-6.262;2023-12-20T01:46:31;101925.72;;;6.57;100.00
28167;BME280;15455;53.376;-6.262;2023-12-20T01:49:17;101924.28;;;6.65;100.00
28167;BME280;15455;53.376;-6.262;2023-12-20T01:52:03;101910.63;;;6.71;100.00
28167;BME280;15455;53.376;-6.262;2023-12-20T01:54:49;101921.16;;;6.75;100.00
28167;BME280;15455;53.376;-6.262;2023-12-20T01:57:35;101921.28;;;6.80;100.00
28167;BME280;15455;53.376;-6.262;2023-12-20T02:00:21;101924.88;;;6.84;100.00
28167;BME280;15455;53.376;-6.262;2023-12-20T02:03:09;101909.41;;;6.87;100.00
28167;BME280;15455;53.376;-6.262;2023-12-20T02:05:54;101919.03;;;6.91;100.00
28167;BME280;15455;53.376;-6.262;2023-12-20T02:08:40;101906.16;;;6.94;100.00
28167;BME280;15455;53.376;-6.262;2023-12-20T02:11:26;101915.81;;;6.98;100.00
28167;BME280;15455;53.376;-6.262;2023-12-20T02:14:13;101909.81;;;6.99;100.00
28167;BME280;15455;53.376;-6.262;2023-12-20T02:16:58;101896.75;;;6.98;100.00
28167;BME280;15455;53.376;-6.262;2023-12-20T02:19:44;101891.69;;;7.01;100.00
28167;BME280;15455;53.376;-6.262;2023-12-20T02:22:29;101890.84;;;7.03;100.00
28167;BME280;15455;53.376;-6.262;2023-12-20T02:25:15;101897.09;;;7.08;100.00
28167;BME280;15455;53.376;-6.262;2023-12-20T02:28:02;101886.09;;;7.17;100.00
28167;BME280;15455;53.376;-6.262;2023-12-20T02:30:47;101907.03;;;7.23;100.00
28167;BME280;15455;53.376;-6.262;2023-12-20T02:33:35;101898.50;;;7.27;100.00
28167;BME280;15455;53.376;-6.262;2023-12-20T02:36:20;101898.59;;;7.30;100.00
28167;BME280;15455;53.376;-6.262;2023-12-20T02:39:06;101897.78;;;7.32;100.00
28167;BME280;15455;53.376;-6.262;2023-12-20T02:41:51;101908.22;;;7.33;100.00
28167;BME280;15455;53.376;-6.262;2023-12-20T02:44:37;101900.38;;;7.32;100.00
28167;BME280;15455;53.376;-6.262;2023-12-20T02:47:22;101893.41;;;7.30;100.00
28167;BME280;15455;53.376;-6.262;2023-12-20T02:50:08;101904.53;;;7.26;100.00
28167;BME280;15455;53.376;-6.262;2023-12-20T02:52:54;101919.97;;;7.22;100.00
28167;BME280;15455;53.376;-6.262;2023-12-20T02:55:39;101919.03;;;7.18;100.00
28167;BME280;15455;53.376;-6.262;2023-12-20T02:58:25;101922.53;;;7.20;100.00
28167;BME280;15455;53.376;-6.262;2023-12-20T03:01:11;101917.47;;;7.25;100.00
28167;BME280;15455;53.376;-6.262;2023-12-20T03:03:57;101927.88;;;7.25;100.00
28167;BME280;15455;53.376;-6.262;2023-12-20T03:06:43;101935.50;;;7.20;100.00
28167;BME280;15455;53.376;-6.262;2023-12-20T03:09:28;101934.47;;;7.13;100.00
28167;BME280;15455;53.376;-6.262;2023-12-20T03:12:19;101924.94;;;7.14;100.00
28167;BME280;15455;53.376;-6.262;2023-12-20T03:15:05;101932.66;;;7.11;100.00
28167;BME280;15455;53.376;-6.262;2023-12-20T03:17:51;101918.78;;;7.10;100.00
28167;BME280;15455;53.376;-6.262;2023-12-20T03:20:36;101918.81;;;7.12;100.00
28167;BME280;15455;53.376;-6.262;2023-12-20T03:23:22;101916.81;;;7.03;100.00
28167;BME280;15455;53.376;-6.262;2023-12-20T03:26:08;101915.25;;;7.08;100.00
28167;BME280;15455;53.376;-6.262;2023-12-20T03:28:54;101912.03;;;7.16;100.00
28167;BME280;15455;53.376;-6.262;2023-12-20T03:31:40;101912.25;;;7.23;100.00
28167;BME280;15455;53.376;-6.262;2023-12-20T03:34:26;101892.53;;;7.30;100.00
28167;BME280;15455;53.376;-6.262;2023-12-20T03:37:12;101902.28;;;7.37;100.00
28167;BME280;15455;53.376;-6.262;2023-12-20T03:39:58;101898.97;;;7.43;100.00
28167;BME280;15455;53.376;-6.262;2023-12-20T03:42:43;101889.63;;;7.50;100.00
28167;BME280;15455;53.376;-6.262;2023-12-20T03:45:29;101877.56;;;7.52;100.00
28167;BME280;15455;53.376;-6.262;2023-12-20T03:48:14;101864.56;;;7.50;100.00
28167;BME280;15455;53.376;-6.262;2023-12-20T03:50:59;101871.50;;;7.51;100.00
28167;BME280;15455;53.376;-6.262;2023-12-20T03:53:45;101887.09;;;7.51;100.00
28167;BME280;15455;53.376;-6.262;2023-12-20T03:56:31;101891.47;;;7.54;100.00
28167;BME280;15455;53.376;-6.262;2023-12-20T03:59:18;101887.22;;;7.56;100.00
28167;BME280;15455;53.376;-6.262;2023-12-20T04:02:04;101862.91;;;7.54;100.00
28167;BME280;15455;53.376;-6.262;2023-12-20T04:04:50;101882.81;;;7.53;100.00
28167;BME280;15455;53.376;-6.262;2023-12-20T04:07:36;101891.56;;;7.57;100.00
28167;BME280;15455;53.376;-6.262;2023-12-20T04:10:21;101881.28;;;7.60;100.00
28167;BME280;15455;53.376;-6.262;2023-12-20T04:13:07;101905.53;;;7.60;100.00
28167;BME280;15455;53.376;-6.262;2023-12-20T04:15:52;101902.06;;;7.60;100.00
28167;BME280;15455;53.376;-6.262;2023-12-20T04:18:38;101907.31;;;7.61;100.00
28167;BME280;15455;53.376;-6.262;2023-12-20T04:21:23;101920.34;;;7.63;100.00
28167;BME280;15455;53.376;-6.262;2023-12-20T04:24:09;101928.13;;;7.63;100.00
28167;BME280;15455;53.376;-6.262;2023-12-20T04:26:54;101936.78;;;7.63;100.00
28167;BME280;15455;53.376;-6.262;2023-12-20T04:29:40;101932.47;;;7.64;100.00
28167;BME280;15455;53.376;-6.262;2023-12-20T04:32:25;101922.03;;;7.62;100.00
28167;BME280;15455;53.376;-6.262;2023-12-20T04:35:11;101922.84;;;7.60;100.00
28167;BME280;15455;53.376;-6.262;2023-12-20T04:37:56;101912.41;;;7.58;100.00
28167;BME280;15455;53.376;-6.262;2023-12-20T04:40:41;101890.69;;;7.56;100.00
28167;BME280;15455;53.376;-6.262;2023-12-20T04:43:27;101891.50;;;7.55;100.00
28167;BME280;15455;53.376;-6.262;2023-12-20T04:46:13;101902.78;;;7.54;100.00
28167;BME280;15455;53.376;-6.262;2023-12-20T04:48:59;101897.56;;;7.54;100.00
28167;BME280;15455;53.376;-6.262;2023-12-20T04:51:44;101905.38;;;7.54;100.00
28167;BME280;15455;53.376;-6.262;2023-12-20T04:54:30;101880.25;;;7.55;100.00
28167;BME280;15455;53.376;-6.262;2023-12-20T04:57:15;101882.94;;;7.58;100.00
28167;BME280;15455;53.376;-6.262;2023-12-20T05:00:01;101915.94;;;7.60;100.00
28167;BME280;15455;53.376;-6.262;2023-12-20T05:02:47;101906.47;;;7.64;100.00
28167;BME280;15455;53.376;-6.262;2023-12-20T05:05:33;101892.75;;;7.68;100.00
28167;BME280;15455;53.376;-6.262;2023-12-20T05:08:19;101902.34;;;7.71;100.00
28167;BME280;15455;53.376;-6.262;2023-12-20T05:11:05;101897.31;;;7.77;100.00
28167;BME280;15455;53.376;-6.262;2023-12-20T05:13:50;101908.50;;;7.73;100.00
28167;BME280;15455;53.376;-6.262;2023-12-20T05:16:36;101901.41;;;7.67;100.00
28167;BME280;15455;53.376;-6.262;2023-12-20T05:19:21;101902.06;;;7.60;100.00
28167;BME280;15455;53.376;-6.262;2023-12-20T05:22:07;101894.97;;;7.54;100.00
28167;BME280;15455;53.376;-6.262;2023-12-20T05:24:53;101896.53;;;7.49;100.00
28167;BME280;15455;53.376;-6.262;2023-12-20T05:27:39;101906.81;;;7.44;100.00
28167;BME280;15455;53.376;-6.262;2023-12-20T05:30:25;101908.41;;;7.41;100.00
28167;BME280;15455;53.376;-6.262;2023-12-20T05:33:10;101904.00;;;7.37;100.00
28167;BME280;15455;53.376;-6.262;2023-12-20T05:35:56;101913.34;;;7.32;100.00
28167;BME280;15455;53.376;-6.262;2023-12-20T05:38:41;101917.63;;;7.29;100.00
28167;BME280;15455;53.376;-6.262;2023-12-20T05:41:27;101915.91;;;7.30;100.00
28167;BME280;15455;53.376;-6.262;2023-12-20T05:44:13;101914.19;;;7.30;100.00
28167;BME280;15455;53.376;-6.262;2023-12-20T05:46:58;101911.66;;;7.34;100.00
28167;BME280;15455;53.376;-6.262;2023-12-20T05:49:44;101910.06;;;7.37;100.00
28167;BME280;15455;53.376;-6.262;2023-12-20T05:52:30;101903.22;;;7.41;100.00
28167;BME280;15455;53.376;-6.262;2023-12-20T05:55:15;101896.41;;;7.44;100.00
28167;BME280;15455;53.376;-6.262;2023-12-20T05:58:01;101877.41;;;7.45;100.00
28167;BME280;15455;53.376;-6.262;2023-12-20T06:00:47;101863.59;;;7.48;100.00
28167;BME280;15455;53.376;-6.262;2023-12-20T06:03:34;101841.16;;;7.50;100.00
28167;BME280;15455;53.376;-6.262;2023-12-20T06:06:20;101841.25;;;7.53;100.00
28167;BME280;15455;53.376;-6.262;2023-12-20T06:09:05;101844.72;;;7.54;100.00
28167;BME280;15455;53.376;-6.262;2023-12-20T06:11:51;101847.47;;;7.58;100.00
28167;BME280;15455;53.376;-6.262;2023-12-20T06:14:37;101845.00;;;7.63;100.00
28167;BME280;15455;53.376;-6.262;2023-12-20T06:17:22;101853.72;;;7.67;100.00
28167;BME280;15455;53.376;-6.262;2023-12-20T06:20:09;101846.00;;;7.70;100.00
28167;BME280;15455;53.376;-6.262;2023-12-20T06:22:55;101840.06;;;7.74;100.00
28167;BME280;15455;53.376;-6.262;2023-12-20T06:25:40;101838.25;;;7.71;100.00
28167;BME280;15455;53.376;-6.262;2023-12-20T06:28:26;101838.34;;;7.73;100.00
28167;BME280;15455;53.376;-6.262;2023-12-20T06:31:11;101847.78;;;7.71;100.00
28167;BME280;15455;53.376;-6.262;2023-12-20T06:33:57;101839.94;;;7.69;100.00
28167;BME280;15455;53.376;-6.262;2023-12-20T06:36:45;101855.47;;;7.66;100.00
28167;BME280;15455;53.376;-6.262;2023-12-20T06:39:30;101850.97;;;7.60;100.00
28167;BME280;15455;53.376;-6.262;2023-12-20T06:42:16;101863.88;;;7.57;100.00
28167;BME280;15455;53.376;-6.262;2023-12-20T06:45:03;101868.13;;;7.55;100.00
28167;BME280;15455;53.376;-6.262;2023-12-20T06:47:49;101890.69;;;7.56;100.00
28167;BME280;15455;53.376;-6.262;2023-12-20T06:50:34;101900.25;;;7.57;100.00
28167;BME280;15455;53.376;-6.262;2023-12-20T06:53:19;101909.00;;;7.61;100.00
28167;BME280;15455;53.376;-6.262;2023-12-20T06:56:05;101922.94;;;7.63;100.00
28167;BME280;15455;53.376;-6.262;2023-12-20T06:58:52;101913.50;;;7.67;100.00
28167;BME280;15455;53.376;-6.262;2023-12-20T07:01:38;101907.47;;;7.68;100.00
28167;BME280;15455;53.376;-6.262;2023-12-20T07:04:24;101911.88;;;7.70;100.00
28167;BME280;15455;53.376;-6.262;2023-12-20T07:07:09;101874.63;;;7.71;100.00
28167;BME280;15455;53.376;-6.262;2023-12-20T07:09:55;101875.59;;;7.73;100.00
28167;BME280;15455;53.376;-6.262;2023-12-20T07:12:40;101875.69;;;7.78;100.00
28167;BME280;15455;53.376;-6.262;2023-12-20T07:15:26;101881.84;;;7.80;100.00
28167;BME280;15455;53.376;-6.262;2023-12-20T07:18:12;101891.34;;;7.79;100.00
28167;BME280;15455;53.376;-6.262;2023-12-20T07:20:58;101904.28;;;7.78;100.00
28167;BME280;15455;53.376;-6.262;2023-12-20T07:23:43;101915.50;;;7.77;100.00
28167;BME280;15455;53.376;-6.262;2023-12-20T07:26:29;101889.47;;;7.75;100.00
28167;BME280;15455;53.376;-6.262;2023-12-20T07:29:14;101891.22;;;7.75;100.00
28167;BME280;15455;53.376;-6.262;2023-12-20T07:32:00;101884.25;;;7.74;100.00
28167;BME280;15455;53.376;-6.262;2023-12-20T07:34:45;101895.53;;;7.74;100.00
28167;BME280;15455;53.376;-6.262;2023-12-20T07:37:31;101885.97;;;7.73;100.00
28167;BME280;15455;53.376;-6.262;2023-12-20T07:40:17;101879.91;;;7.73;100.00
28167;BME280;15455;53.376;-6.262;2023-12-20T07:43:02;101867.75;;;7.72;100.00
28167;BME280;15455;53.376;-6.262;2023-12-20T07:45:48;101862.59;;;7.73;100.00
28167;BME280;15455;53.376;-6.262;2023-12-20T07:48:37;101862.59;;;7.73;100.00
28167;BME280;15455;53.376;-6.262;2023-12-20T07:51:23;101847.03;;;7.75;100.00
28167;BME280;15455;53.376;-6.262;2023-12-20T07:54:09;101844.47;;;7.76;100.00
28167;BME280;15455;53.376;-6.262;2023-12-20T07:56:55;101846.31;;;7.80;100.00
28167;BME280;15455;53.376;-6.262;2023-12-20T07:59:41;101837.78;;;7.85;100.00
28167;BME280;15455;53.376;-6.262;2023-12-20T08:02:26;101830.06;;;7.88;100.00
28167;BME280;15455;53.376;-6.262;2023-12-20T08:05:12;101817.97;;;7.90;100.00
28167;BME280;15455;53.376;-6.262;2023-12-20T08:08:00;101818.88;;;7.90;100.00
28167;BME280;15455;53.376;-6.262;2023-12-20T08:10:46;101857.00;;;7.91;100.00
28167;BME280;15455;53.376;-6.262;2023-12-20T08:13:31;101869.22;;;7.95;100.00
28167;BME280;15455;53.376;-6.262;2023-12-20T08:16:17;101838.09;;;7.98;100.00
28167;BME280;15455;53.376;-6.262;2023-12-20T08:19:03;101823.53;;;8.04;100.00
28167;BME280;15455;53.376;-6.262;2023-12-20T08:21:48;101828.84;;;8.08;100.00
28167;BME280;15455;53.376;-6.262;2023-12-20T08:24:34;101803.81;;;8.12;100.00
28167;BME280;15455;53.376;-6.262;2023-12-20T08:27:20;101799.53;;;8.15;100.00
28167;BME280;15455;53.376;-6.262;2023-12-20T08:30:08;101796.16;;;8.18;100.00
28167;BME280;15455;53.376;-6.262;2023-12-20T08:32:54;101790.13;;;8.19;100.00
28167;BME280;15455;53.376;-6.262;2023-12-20T08:35:40;101782.34;;;8.21;100.00
28167;BME280;15455;53.376;-6.262;2023-12-20T08:38:25;101785.78;;;8.20;100.00
28167;BME280;15455;53.376;-6.262;2023-12-20T08:41:11;101791.91;;;8.23;100.00
28167;BME280;15455;53.376;-6.262;2023-12-20T08:43:56;101795.38;;;8.22;100.00
28167;BME280;15455;53.376;-6.262;2023-12-20T08:46:43;101777.16;;;8.21;100.00
28167;BME280;15455;53.376;-6.262;2023-12-20T08:49:28;101789.25;;;8.20;100.00
28167;BME280;15455;53.376;-6.262;2023-12-20T08:52:14;101784.03;;;8.20;100.00
28167;BME280;15455;53.376;-6.262;2023-12-20T08:55:00;101789.28;;;8.22;100.00
28167;BME280;15455;53.376;-6.262;2023-12-20T08:57:45;101787.66;;;8.25;100.00
28167;BME280;15455;53.376;-6.262;2023-12-20T09:00:32;101778.22;;;8.30;100.00
28167;BME280;15455;53.376;-6.262;2023-12-20T09:03:17;101782.50;;;8.28;100.00
28167;BME280;15455;53.376;-6.262;2023-12-20T09:06:03;101778.16;;;8.27;100.00
28167;BME280;15455;53.376;-6.262;2023-12-20T09:08:49;101780.69;;;8.24;100.00
28167;BME280;15455;53.376;-6.262;2023-12-20T09:11:34;101770.22;;;8.21;100.00
28167;BME280;15455;53.376;-6.262;2023-12-20T09:14:20;101765.81;;;8.18;100.00
28167;BME280;15455;53.376;-6.262;2023-12-20T09:17:05;101775.34;;;8.18;100.00
28167;BME280;15455;53.376;-6.262;2023-12-20T09:19:53;101765.81;;;8.18;100.00
28167;BME280;15455;53.376;-6.262;2023-12-20T09:22:39;101739.88;;;8.22;100.00
28167;BME280;15455;53.376;-6.262;2023-12-20T09:25:24;101726.91;;;8.23;100.00
28167;BME280;15455;53.376;-6.262;2023-12-20T09:28:12;101738.31;;;8.28;100.00
28167;BME280;15455;53.376;-6.262;2023-12-20T09:30:57;101736.59;;;8.30;100.00
28167;BME280;15455;53.376;-6.262;2023-12-20T09:33:43;101721.13;;;8.35;100.00
28167;BME280;15455;53.376;-6.262;2023-12-20T09:36:29;101709.06;;;8.39;100.00
28167;BME280;15455;53.376;-6.262;2023-12-20T09:39:17;101692.66;;;8.43;100.00
28167;BME280;15455;53.376;-6.262;2023-12-20T09:42:06;101684.97;;;8.46;100.00
28167;BME280;15455;53.376;-6.262;2023-12-20T09:44:52;101676.34;;;8.48;100.00
28167;BME280;15455;53.376;-6.262;2023-12-20T09:47:37;101663.44;;;8.53;100.00
28167;BME280;15455;53.376;-6.262;2023-12-20T09:50:23;101648.78;;;8.57;100.00
28167;BME280;15455;53.376;-6.262;2023-12-20T09:53:13;101641.09;;;8.63;100.00
28167;BME280;15455;53.376;-6.262;2023-12-20T09:56:00;101627.28;;;8.67;100.00
28167;BME280;15455;53.376;-6.262;2023-12-20T09:58:46;101631.72;;;8.71;100.00
28167;BME280;15455;53.376;-6.262;2023-12-20T10:01:34;101631.78;;;8.74;100.00
28167;BME280;15455;53.376;-6.262;2023-12-20T10:04:21;101626.59;;;8.76;100.00
28167;BME280;15455;53.376;-6.262;2023-12-20T10:07:15;101613.53;;;8.73;100.00
28167;BME280;15455;53.376;-6.262;2023-12-20T10:10:02;101605.59;;;8.68;100.00
28167;BME280;15455;53.376;-6.262;2023-12-20T10:13:08;101621.19;;;8.66;100.00
28167;BME280;15455;53.376;-6.262;2023-12-20T10:15:55;101621.16;;;8.65;100.00
28167;BME280;15455;53.376;-6.262;2023-12-20T10:18:41;101619.44;;;8.64;100.00
28167;BME280;15455;53.376;-6.262;2023-12-20T10:21:27;101625.50;;;8.64;100.00
28167;BME280;15455;53.376;-6.262;2023-12-20T10:24:19;101648.94;;;8.66;100.00
28167;BME280;15455;53.376;-6.262;2023-12-20T10:27:06;101648.09;;;8.65;100.00
28167;BME280;15455;53.376;-6.262;2023-12-20T10:29:52;101656.81;;;8.69;100.00
28167;BME280;15455;53.376;-6.262;2023-12-20T10:32:37;101640.34;;;8.68;100.00
28167;BME280;15455;53.376;-6.262;2023-12-20T10:35:23;101634.22;;;8.68;100.00
28167;BME280;15455;53.376;-6.262;2023-12-20T10:38:08;101643.75;;;8.66;100.00
28167;BME280;15455;53.376;-6.262;2023-12-20T10:40:57;101667.13;;;8.64;100.00
28167;BME280;15455;53.376;-6.262;2023-12-20T10:43:46;101675.75;;;8.62;100.00
28167;BME280;15455;53.376;-6.262;2023-12-20T10:46:33;101678.28;;;8.59;100.00
28167;BME280;15455;53.376;-6.262;2023-12-20T10:49:19;101664.34;;;8.55;100.00
28167;BME280;15455;53.376;-6.262;2023-12-20T10:52:06;101681.66;;;8.53;100.00
28167;BME280;15455;53.376;-6.262;2023-12-20T10:54:53;101686.88;;;8.55;100.00
28167;BME280;15455;53.376;-6.262;2023-12-20T10:57:39;101680.81;;;8.54;100.00
28167;BME280;15455;53.376;-6.262;2023-12-20T11:00:25;101685.13;;;8.54;100.00
28167;BME280;15455;53.376;-6.262;2023-12-20T11:03:11;101686.91;;;8.56;100.00
28167;BME280;15455;53.376;-6.262;2023-12-20T11:09:33;101685.22;;;8.58;100.00
28167;BME280;15455;53.376;-6.262;2023-12-20T11:12:32;101692.16;;;8.59;100.00
28167;BME280;15455;53.376;-6.262;2023-12-20T11:15:21;101668.75;;;8.59;100.00
28167;BME280;15455;53.376;-6.262;2023-12-20T11:18:06;101659.19;;;8.57;100.00
28167;BME280;15455;53.376;-6.262;2023-12-20T11:20:54;101660.94;;;8.59;100.00
28167;BME280;15455;53.376;-6.262;2023-12-20T11:23:42;101648.03;;;8.62;100.00
28167;BME280;15455;53.376;-6.262;2023-12-20T11:26:28;101650.72;;;8.67;100.00
28167;BME280;15455;53.376;-6.262;2023-12-20T11:37:58;101620.72;;;8.86;100.00
28167;BME280;15455;53.376;-6.262;2023-12-20T11:40:44;101606.00;;;8.90;100.00
28167;BME280;15455;53.376;-6.262;2023-12-20T11:43:36;101573.97;;;8.94;100.00
28167;BME280;15455;53.376;-6.262;2023-12-20T11:46:22;101586.25;;;9.01;100.00
28167;BME280;15455;53.376;-6.262;2023-12-20T11:49:08;101576.78;;;9.04;100.00
28167;BME280;15455;53.376;-6.262;2023-12-20T11:51:54;101556.91;;;9.11;100.00
28167;BME280;15455;53.376;-6.262;2023-12-20T11:54:39;101552.66;;;9.15;100.00
28167;BME280;15455;53.376;-6.262;2023-12-20T11:57:25;101544.91;;;9.19;100.00
28167;BME280;15455;53.376;-6.262;2023-12-20T12:00:13;101544.13;;;9.25;100.00
28167;BME280;15455;53.376;-6.262;2023-12-20T12:02:59;101536.34;;;9.28;100.00
28167;BME280;15455;53.376;-6.262;2023-12-20T12:05:47;101537.31;;;9.33;100.00
28167;BME280;15455;53.376;-6.262;2023-12-20T12:08:35;101524.34;;;9.38;100.00
28167;BME280;15455;53.376;-6.262;2023-12-20T12:11:21;101521.78;;;9.39;100.00
28167;BME280;15455;53.376;-6.262;2023-12-20T12:14:07;101514.00;;;9.43;100.00
28167;BME280;15455;53.376;-6.262;2023-12-20T12:16:53;101521.84;;;9.46;100.00
28167;BME280;15455;53.376;-6.262;2023-12-20T12:19:41;101533.16;;;9.46;100.00
28167;BME280;15455;53.376;-6.262;2023-12-20T12:22:27;101548.69;;;9.40;100.00
28167;BME280;15455;53.376;-6.262;2023-12-20T12:25:14;101541.69;;;9.36;100.00
28167;BME280;15455;53.376;-6.262;2023-12-20T12:28:00;101546.84;;;9.33;100.00
28167;BME280;15455;53.376;-6.262;2023-12-20T12:30:59;101562.44;;;9.30;100.00
28167;BME280;15455;53.376;-6.262;2023-12-20T12:33:45;101564.97;;;9.25;100.00
28167;BME280;15455;53.376;-6.262;2023-12-20T12:36:32;101564.00;;;9.20;100.00
28167;BME280;15455;53.376;-6.262;2023-12-20T12:39:18;101559.53;;;9.13;100.00
28167;BME280;15455;53.376;-6.262;2023-12-20T12:42:04;101539.53;;;9.09;100.00
28167;BME280;15455;53.376;-6.262;2023-12-20T12:44:49;101534.25;;;9.06;100.00
28167;BME280;15455;53.376;-6.262;2023-12-20T12:47:36;101529.00;;;9.02;100.00
28167;BME280;15455;53.376;-6.262;2023-12-20T12:50:22;101518.56;;;9.01;100.00
28167;BME280;15455;53.376;-6.262;2023-12-20T12:53:08;101537.59;;;8.98;100.00
28167;BME280;15455;53.376;-6.262;2023-12-20T12:55:55;101507.31;;;9.03;100.00
28167;BME280;15455;53.376;-6.262;2023-12-20T12:58:41;101505.69;;;9.09;100.00
28167;BME280;15455;53.376;-6.262;2023-12-20T13:01:27;101494.50;;;9.14;100.00
28167;BME280;15455;53.376;-6.262;2023-12-20T13:04:13;101467.59;;;9.17;100.00
28167;BME280;15455;53.376;-6.262;2023-12-20T13:06:59;101467.72;;;9.23;100.00
28167;BME280;15455;53.376;-6.262;2023-12-20T13:09:46;101459.94;;;9.28;100.00
28167;BME280;15455;53.376;-6.262;2023-12-20T13:12:32;101452.13;;;9.26;100.00
28167;BME280;15455;53.376;-6.262;2023-12-20T13:15:18;101447.81;;;9.30;100.00
28167;BME280;15455;53.376;-6.262;2023-12-20T13:18:04;101438.31;;;9.33;100.00
28167;BME280;15455;53.376;-6.262;2023-12-20T13:20:51;101440.94;;;9.35;100.00
28167;BME280;15455;53.376;-6.262;2023-12-20T13:23:37;101444.44;;;9.37;100.00
28167;BME280;15455;53.376;-6.262;2023-12-20T13:26:25;101438.31;;;9.33;100.00
28167;BME280;15455;53.376;-6.262;2023-12-20T13:29:10;101441.75;;;9.31;100.00
28167;BME280;15455;53.376;-6.262;2023-12-20T13:31:57;101436.50;;;9.28;100.00
28167;BME280;15455;53.376;-6.262;2023-12-20T13:34:43;101435.66;;;9.29;100.00
28167;BME280;15455;53.376;-6.262;2023-12-20T13:37:28;101427.78;;;9.26;100.00
28167;BME280;15455;53.376;-6.262;2023-12-20T13:40:14;101426.09;;;9.28;100.00
28167;BME280;15455;53.376;-6.262;2023-12-20T13:43:00;101413.03;;;9.25;100.00
28167;BME280;15455;53.376;-6.262;2023-12-20T13:45:45;101402.63;;;9.25;100.00
28167;BME280;15455;53.376;-6.262;2023-12-20T13:48:32;101410.44;;;9.26;100.00
28167;BME280;15455;53.376;-6.262;2023-12-20T13:51:17;101406.09;;;9.27;100.00
28167;BME280;15455;53.376;-6.262;2023-12-20T13:54:03;101418.25;;;9.26;100.00
28167;BME280;15455;53.376;-6.262;2023-12-20T13:56:49;101407.91;;;9.31;100.00
28167;BME280;15455;53.376;-6.262;2023-12-20T13:59:51;101409.66;;;9.33;100.00
28167;BME280;15455;53.376;-6.262;2023-12-20T14:02:37;101411.41;;;9.34;100.00
28167;BME280;15455;53.376;-6.262;2023-12-20T14:05:23;101390.56;;;9.34;100.00
28167;BME280;15455;53.376;-6.262;2023-12-20T14:08:13;101400.09;;;9.32;100.00
28167;BME280;15455;53.376;-6.262;2023-12-20T14:10:58;101394.91;;;9.34;100.00
28167;BME280;15455;53.376;-6.262;2023-12-20T14:13:43;101393.16;;;9.33;100.00
28167;BME280;15455;53.376;-6.262;2023-12-20T14:16:29;101394.03;;;9.33;100.00
28167;BME280;15455;53.376;-6.262;2023-12-20T14:19:16;101396.66;;;9.35;100.00
28167;BME280;15455;53.376;-6.262;2023-12-20T14:22:02;101389.72;;;9.35;100.00
28167;BME280;15455;53.376;-6.262;2023-12-20T14:24:49;101383.69;;;9.39;100.00
28167;BME280;15455;53.376;-6.262;2023-12-20T14:27:34;101385.44;;;9.41;100.00
28167;BME280;15455;53.376;-6.262;2023-12-20T14:30:20;101381.09;;;9.41;100.00